Thompson Place, Washington
Current Conditions -  °F | °C
As of 12:54 PM on Sunday 21 Dec 2014 (Local Time) from KOLM Reporting Station
Light Rain Light Rain  
Wind Chill: 55°   Ceiling: 4100
Heat Index: 55°   Visibility: 8mi
Dew Point: 46°   Wind: 3mph
Humidity: 72%   Direction: 240°WSW
Pressure: 30"   Gusts: NA
Location:  46.9755°N, 122.872°W
Report Text: KOLM 212054Z 24003KT 8SM -RA SCT031 BKN041 OVC050 13/08 A3000 RMK AO2 RAB47 SLP158 P0000 60000 T01280078 51012
Loading
Personal Weather Stations






























Interactive Weather Map New forecast layout! Learn more

10-Day Weather Forecast

Advertisements
Track Severe Weather on mobile